Time;durP1;ratioP1;P1;durP2;ratioP2;P2;SDS_P1;SDS_P2;PMS_P1;PMS_P2;Temp;Humidity;BMP_temperature;BMP_pressure;BME280_temperature;BME280_humidity;BME280_pressure;Samples;Min_cycle;Max_cycle;Signal;HPM_P1;HPM_P2
2021/05/23 00:02:03;;;;;;;9.88;3.55;;;;;;;;;;5019244;28;20041;-47
2021/05/23 00:04:29;;;;;;;9.52;2.80;;;;;;;;;;5016089;28;20029;-45
2021/05/23 00:06:54;;;;;;;8.13;3.65;;;;;;;;;;5018144;28;20557;-44
2021/05/23 00:09:19;;;;;;;4.25;2.05;;;;;;;;;;5021235;28;20041;-46
2021/05/23 00:11:45;;;;;;;11.02;2.75;;;;;;;;;;5018244;28;20505;-46
2021/05/23 00:14:10;;;;;;;3.70;1.73;;;;;;;;;;5000203;28;20514;-46
2021/05/23 00:16:35;;;;;;;6.38;2.90;;;;;;;;;;5018396;28;20034;-45
2021/05/23 00:19:01;;;;;;;17.20;2.63;;;;;;;;;;5017154;28;20398;-47
2021/05/23 00:21:26;;;;;;;8.88;1.90;;;;;;;;;;5016785;28;20042;-45
2021/05/23 00:23:52;;;;;;;3.42;1.13;;;;;;;;;;5016947;28;20053;-50
2021/05/23 00:26:18;;;;;;;5.22;2.03;;;;;;;;;;5016644;28;20049;-45
2021/05/23 00:28:43;;;;;;;7.40;2.63;;;;;;;;;;5017300;28;20037;-45
2021/05/23 00:31:09;;;;;;;8.60;1.50;;;;;;;;;;5016363;28;20543;-46
2021/05/23 00:33:34;;;;;;;3.05;1.63;;;;;;;;;;5014698;28;20038;-48
2021/05/23 00:35:59;;;;;;;6.15;2.35;;;;;;;;;;5017193;28;20048;-44
2021/05/23 00:38:25;;;;;;;11.23;2.08;;;;;;;;;;5016909;28;20777;-47
2021/05/23 00:40:51;;;;;;;5.07;1.95;;;;;;;;;;5018513;28;20418;-43
2021/05/23 00:43:17;;;;;;;7.72;2.22;;;;;;;;;;5012825;28;20505;-44
2021/05/23 00:45:42;;;;;;;8.20;1.60;;;;;;;;;;5018006;28;20029;-44
2021/05/23 00:48:08;;;;;;;9.95;1.42;;;;;;;;;;5016200;28;20356;-45
2021/05/23 00:50:34;;;;;;;7.75;3.30;;;;;;;;;;5015927;28;20029;-44
2021/05/23 00:52:59;;;;;;;7.72;1.63;;;;;;;;;;5017942;28;20033;-44
2021/05/23 00:55:25;;;;;;;8.85;0.85;;;;;;;;;;5013894;28;20033;-46
2021/05/23 00:57:50;;;;;;;7.25;2.15;;;;;;;;;;5017126;28;20132;-44
2021/05/23 01:00:37;;;;;;;7.05;2.60;;;;;;;;;;5012592;28;20126;-45
2021/05/23 01:03:02;;;;;;;4.30;1.40;;;;;;;;;;4996353;28;20096;-44
2021/05/23 01:05:28;;;;;;;7.70;1.70;;;;;;;;;;5020775;28;20049;-47
2021/05/23 01:07:54;;;;;;;5.38;1.08;;;;;;;;;;5016383;28;20044;-43
2021/05/23 01:10:21;;;;;;;2.60;1.05;;;;;;;;;;5018668;28;20052;-45
2021/05/23 01:12:52;;;;;;;1.98;0.98;;;;;;;;;;5015043;28;20037;-44
2021/05/23 01:15:19;;;;;;;1.95;1.23;;;;;;;;;;5015458;28;20521;-45
2021/05/23 01:17:46;;;;;;;4.80;1.38;;;;;;;;;;5015029;28;20491;-47
2021/05/23 01:20:30;;;;;;;5.68;1.17;;;;;;;;;;5015759;28;20045;-43
2021/05/23 01:23:06;;;;;;;8.65;2.00;;;;;;;;;;5017371;28;20034;-46
2021/05/23 01:25:31;;;;;;;2.03;1.08;;;;;;;;;;5016086;28;20061;-44
2021/05/23 01:27:57;;;;;;;5.95;2.08;;;;;;;;;;5015233;28;20045;-43
2021/05/23 01:30:30;;;;;;;8.40;3.13;;;;;;;;;;5012523;28;20037;-44
2021/05/23 01:32:58;;;;;;;12.93;1.42;;;;;;;;;;5014769;28;20499;-43
2021/05/23 01:35:29;;;;;;;7.05;1.30;;;;;;;;;;5017924;28;20037;-43
2021/05/23 01:37:59;;;;;;;;;;;;;;;;;;5014549;28;20037;-44
2021/05/23 01:40:24;;;;;;;8.73;2.28;;;;;;;;;;5016444;28;20493;-44
2021/05/23 01:42:50;;;;;;;5.55;1.90;;;;;;;;;;5014164;28;20149;-46
2021/05/23 01:45:16;;;;;;;4.75;2.08;;;;;;;;;;5013044;28;20053;-44
2021/05/23 01:47:41;;;;;;;7.90;1.73;;;;;;;;;;5016860;28;20037;-45
2021/05/23 01:50:06;;;;;;;1.33;0.98;;;;;;;;;;5013496;28;20041;-43
2021/05/23 01:52:32;;;;;;;11.75;2.22;;;;;;;;;;5013635;28;20491;-44
2021/05/23 01:54:57;;;;;;;6.55;1.33;;;;;;;;;;5016933;28;20506;-46
2021/05/23 01:57:23;;;;;;;6.63;3.55;;;;;;;;;;5014924;28;20037;-44
2021/05/23 01:59:48;;;;;;;6.30;1.67;;;;;;;;;;5015511;28;20103;-43
2021/05/23 02:02:13;;;;;;;12.07;2.65;;;;;;;;;;5012992;28;20036;-44
2021/05/23 02:04:39;;;;;;;5.32;1.92;;;;;;;;;;5017474;28;20034;-44
2021/05/23 02:07:04;;;;;;;7.85;2.95;;;;;;;;;;5016924;28;20030;-45
2021/05/23 02:09:29;;;;;;;6.90;2.75;;;;;;;;;;5014949;28;20098;-44
2021/05/23 02:11:56;;;;;;;9.15;2.17;;;;;;;;;;5015706;28;20528;-43
2021/05/23 02:14:22;;;;;;;2.47;1.20;;;;;;;;;;5018115;28;20057;-45
2021/05/23 02:16:47;;;;;;;5.28;1.60;;;;;;;;;;5014258;28;20375;-44
2021/05/23 02:19:12;;;;;;;3.45;1.38;;;;;;;;;;5016891;28;20148;-44
2021/05/23 02:21:37;;;;;;;3.45;1.60;;;;;;;;;;5017178;28;20037;-45
2021/05/23 02:24:03;;;;;;;4.50;1.17;;;;;;;;;;5003338;28;20040;-46
2021/05/23 02:26:28;;;;;;;4.55;2.13;;;;;;;;;;5021206;28;20087;-43
2021/05/23 02:28:54;;;;;;;8.43;2.45;;;;;;;;;;5015322;28;20042;-45
2021/05/23 02:31:19;;;;;;;21.73;3.38;;;;;;;;;;5019682;28;20042;-43
2021/05/23 02:33:44;;;;;;;7.22;2.50;;;;;;;;;;5014393;28;20556;-43
2021/05/23 02:36:10;;;;;;;4.78;2.50;;;;;;;;;;5019746;28;20117;-48
2021/05/23 02:38:35;;;;;;;8.70;2.35;;;;;;;;;;5017700;28;20034;-45
2021/05/23 02:41:00;;;;;;;16.13;2.97;;;;;;;;;;5022138;28;20033;-43
2021/05/23 02:43:26;;;;;;;11.88;1.98;;;;;;;;;;5018498;28;20712;-46
2021/05/23 02:45:51;;;;;;;8.18;1.52;;;;;;;;;;5019919;28;20034;-43
2021/05/23 02:48:17;;;;;;;5.30;1.63;;;;;;;;;;5019692;28;20471;-46
2021/05/23 02:50:44;;;;;;;14.20;2.15;;;;;;;;;;5017649;28;20087;-44
2021/05/23 02:53:10;;;;;;;8.45;1.95;;;;;;;;;;5018702;28;20096;-45
2021/05/23 02:55:36;;;;;;;2.80;1.83;;;;;;;;;;5018520;28;20115;-44
2021/05/23 02:58:02;;;;;;;9.15;2.33;;;;;;;;;;5017501;28;20491;-44
2021/05/23 03:00:27;;;;;;;5.43;2.10;;;;;;;;;;5017173;28;20042;-43
2021/05/23 03:02:53;;;;;;;4.95;1.48;;;;;;;;;;5015494;28;20034;-43
2021/05/23 03:05:20;;;;;;;2.42;1.45;;;;;;;;;;5019119;28;20121;-43
2021/05/23 03:07:46;;;;;;;5.78;2.20;;;;;;;;;;5018462;28;20037;-44
2021/05/23 03:10:13;;;;;;;4.80;2.25;;;;;;;;;;5016558;28;20037;-45
2021/05/23 03:12:39;;;;;;;13.55;2.15;;;;;;;;;;5015978;28;20034;-45
2021/05/23 03:15:09;;;;;;;8.93;2.03;;;;;;;;;;5019891;28;20044;-44
2021/05/23 03:17:34;;;;;;;17.50;2.60;;;;;;;;;;5019166;28;20026;-44
2021/05/23 03:20:00;;;;;;;1.13;0.90;;;;;;;;;;5018344;28;20041;-46
2021/05/23 03:22:25;;;;;;;6.13;1.15;;;;;;;;;;5018928;28;20467;-44
2021/05/23 03:24:50;;;;;;;8.20;1.88;;;;;;;;;;5015737;28;20036;-45
2021/05/23 03:27:16;;;;;;;6.85;2.25;;;;;;;;;;5017054;28;20041;-44
2021/05/23 03:29:41;;;;;;;12.20;2.70;;;;;;;;;;5016934;28;20084;-44
2021/05/23 03:32:06;;;;;;;8.23;1.90;;;;;;;;;;5017718;28;20099;-46
2021/05/23 03:34:32;;;;;;;1.98;0.95;;;;;;;;;;5017292;28;20065;-46
2021/05/23 03:36:57;;;;;;;6.72;2.05;;;;;;;;;;5017231;28;20131;-46
2021/05/23 03:39:22;;;;;;;10.13;2.38;;;;;;;;;;5016161;28;20034;-45
2021/05/23 03:41:48;;;;;;;2.20;1.83;;;;;;;;;;5016723;28;20037;-45
2021/05/23 03:44:13;;;;;;;24.67;2.88;;;;;;;;;;5018731;28;20041;-45
2021/05/23 03:46:38;;;;;;;5.47;1.83;;;;;;;;;;5014847;28;20159;-44
2021/05/23 03:49:04;;;;;;;5.03;2.42;;;;;;;;;;5019639;28;20064;-47
2021/05/23 03:51:29;;;;;;;2.72;0.98;;;;;;;;;;5017720;28;20141;-44
2021/05/23 03:53:55;;;;;;;5.03;1.92;;;;;;;;;;5018938;28;20549;-43
2021/05/23 03:56:20;;;;;;;6.78;2.08;;;;;;;;;;5020883;28;20057;-46
2021/05/23 03:58:45;;;;;;;8.57;1.98;;;;;;;;;;5014135;28;20687;-46
2021/05/23 04:01:11;;;;;;;7.70;1.60;;;;;;;;;;5016475;28;20036;-46
2021/05/23 04:03:36;;;;;;;4.70;1.75;;;;;;;;;;5017071;28;20057;-43
2021/05/23 04:06:03;;;;;;;2.00;0.77;;;;;;;;;;5021246;28;20116;-46
2021/05/23 04:08:28;;;;;;;6.80;1.25;;;;;;;;;;5029477;28;20049;-45
2021/05/23 04:11:01;;;;;;;3.55;1.35;;;;;;;;;;5018040;28;20041;-43
2021/05/23 04:13:27;;;;;;;2.60;1.20;;;;;;;;;;5015427;28;20736;-45
2021/05/23 04:15:52;;;;;;;5.05;2.08;;;;;;;;;;5016818;28;20128;-44
2021/05/23 04:18:18;;;;;;;6.13;1.38;;;;;;;;;;5017695;28;20041;-44
2021/05/23 04:20:43;;;;;;;8.60;1.80;;;;;;;;;;5014142;28;20119;-47
2021/05/23 04:23:09;;;;;;;5.47;1.75;;;;;;;;;;5015007;28;20048;-45
2021/05/23 04:25:34;;;;;;;3.42;1.55;;;;;;;;;;5017882;28;20198;-45
2021/05/23 04:27:59;;;;;;;6.32;2.65;;;;;;;;;;5016751;28;20133;-45
2021/05/23 04:30:26;;;;;;;2.80;1.15;;;;;;;;;;5015835;28;20073;-45
2021/05/23 04:32:51;;;;;;;3.47;1.20;;;;;;;;;;5016608;28;20030;-45
2021/05/23 04:35:17;;;;;;;3.72;1.60;;;;;;;;;;5015860;28;20539;-44
2021/05/23 04:37:43;;;;;;;4.88;2.45;;;;;;;;;;5016136;28;20040;-43
2021/05/23 04:40:09;;;;;;;7.88;2.20;;;;;;;;;;4999090;28;20030;-45
2021/05/23 04:42:34;;;;;;;3.03;1.92;;;;;;;;;;5015893;28;20045;-44
2021/05/23 04:44:59;;;;;;;23.23;2.53;;;;;;;;;;5016535;28;20069;-44
2021/05/23 04:47:27;;;;;;;3.88;1.77;;;;;;;;;;5012483;28;20038;-46
2021/05/23 04:49:52;;;;;;;9.00;2.00;;;;;;;;;;5015711;28;20042;-43
2021/05/23 04:52:17;;;;;;;3.45;1.73;;;;;;;;;;5018046;28;20029;-47
2021/05/23 04:54:43;;;;;;;4.78;1.58;;;;;;;;;;5016408;28;20152;-47
2021/05/23 04:57:08;;;;;;;1.27;0.93;;;;;;;;;;5015379;28;20065;-43
2021/05/23 04:59:33;;;;;;;5.28;1.92;;;;;;;;;;5014908;28;20438;-43
2021/05/23 05:01:59;;;;;;;6.80;2.40;;;;;;;;;;5015379;28;20030;-45
2021/05/23 05:04:24;;;;;;;2.13;1.00;;;;;;;;;;5016097;28;20049;-43
2021/05/23 05:06:50;;;;;;;6.78;2.67;;;;;;;;;;5012304;28;20372;-43
2021/05/23 05:09:15;;;;;;;6.20;2.45;;;;;;;;;;5014668;28;20065;-44
2021/05/23 05:11:40;;;;;;;7.10;1.95;;;;;;;;;;5018242;28;20033;-43
2021/05/23 05:14:06;;;;;;;7.18;1.35;;;;;;;;;;5012102;28;20034;-45
2021/05/23 05:16:31;;;;;;;6.45;1.73;;;;;;;;;;5013746;28;20061;-44
2021/05/23 05:18:57;;;;;;;10.43;2.83;;;;;;;;;;5015914;28;20505;-44
2021/05/23 05:21:22;;;;;;;4.30;1.10;;;;;;;;;;5015902;28;20037;-44
2021/05/23 05:23:47;;;;;;;10.88;2.40;;;;;;;;;;5014135;28;20135;-46
2021/05/23 05:26:13;;;;;;;7.43;1.65;;;;;;;;;;5018897;28;20458;-45
2021/05/23 05:28:38;;;;;;;3.00;1.38;;;;;;;;;;5015842;28;20917;-47
2021/05/23 05:31:03;;;;;;;3.75;1.63;;;;;;;;;;5014584;28;20059;-43
2021/05/23 05:33:29;;;;;;;5.93;1.23;;;;;;;;;;5012089;28;20037;-43
2021/05/23 05:35:54;;;;;;;3.72;2.70;;;;;;;;;;5015676;28;20521;-46
2021/05/23 05:38:19;;;;;;;4.60;1.67;;;;;;;;;;5018536;28;20030;-45
2021/05/23 05:40:45;;;;;;;5.00;3.03;;;;;;;;;;5021431;28;20414;-43
2021/05/23 05:43:10;;;;;;;4.80;1.80;;;;;;;;;;5016259;28;20124;-43
2021/05/23 05:45:36;;;;;;;4.07;2.03;;;;;;;;;;5016946;28;20037;-46
2021/05/23 05:48:01;;;;;;;6.40;2.13;;;;;;;;;;5016476;28;20124;-47
2021/05/23 05:50:26;;;;;;;3.95;1.50;;;;;;;;;;5014807;28;20069;-45
2021/05/23 05:52:52;;;;;;;7.53;1.75;;;;;;;;;;5014386;28;20165;-43
2021/05/23 05:55:17;;;;;;;8.80;2.50;;;;;;;;;;5014237;28;20026;-44
2021/05/23 05:57:42;;;;;;;5.32;1.48;;;;;;;;;;5015917;28;20113;-43
2021/05/23 06:00:08;;;;;;;4.22;1.48;;;;;;;;;;5016576;28;20061;-45
2021/05/23 06:02:33;;;;;;;8.30;1.98;;;;;;;;;;5019564;28;20076;-44
2021/05/23 06:04:58;;;;;;;4.18;2.30;;;;;;;;;;5018575;28;20649;-43
2021/05/23 06:07:25;;;;;;;14.73;3.42;;;;;;;;;;5020548;28;20387;-43
2021/05/23 06:09:50;;;;;;;3.75;2.28;;;;;;;;;;5020041;28;20135;-44
2021/05/23 06:12:17;;;;;;;8.20;4.00;;;;;;;;;;5022981;28;20495;-43
2021/05/23 06:14:43;;;;;;;9.90;4.05;;;;;;;;;;5016718;28;20546;-45
2021/05/23 06:17:08;;;;;;;4.88;3.15;;;;;;;;;;5018210;28;20042;-44
2021/05/23 06:19:33;;;;;;;10.77;3.70;;;;;;;;;;5019060;28;20510;-44
2021/05/23 06:21:59;;;;;;;9.77;5.45;;;;;;;;;;5021732;28;20034;-43
2021/05/23 06:24:24;;;;;;;8.00;3.80;;;;;;;;;;5014060;28;20678;-44
2021/05/23 06:26:50;;;;;;;11.57;6.00;;;;;;;;;;5018890;28;20419;-43
2021/05/23 06:29:15;;;;;;;17.10;3.88;;;;;;;;;;5019144;28;20483;-43
2021/05/23 06:31:40;;;;;;;5.18;4.07;;;;;;;;;;5018249;28;20021;-45
2021/05/23 06:34:05;;;;;;;18.88;4.65;;;;;;;;;;5020157;28;20375;-47
2021/05/23 06:36:31;;;;;;;4.22;3.83;;;;;;;;;;5016959;28;20444;-43
2021/05/23 06:38:56;;;;;;;16.13;4.38;;;;;;;;;;5018622;28;20041;-43
2021/05/23 06:41:21;;;;;;;8.93;4.22;;;;;;;;;;5017317;28;20119;-43
2021/05/23 06:43:47;;;;;;;4.90;2.85;;;;;;;;;;5018935;28;20117;-44
2021/05/23 06:46:12;;;;;;;12.40;4.30;;;;;;;;;;5020284;28;20046;-43
2021/05/23 06:48:37;;;;;;;5.85;2.40;;;;;;;;;;5015347;28;20078;-46
2021/05/23 06:51:03;;;;;;;3.85;1.67;;;;;;;;;;5017455;28;20117;-43
2021/05/23 06:53:28;;;;;;;3.33;1.90;;;;;;;;;;5017482;28;20687;-45
2021/05/23 06:55:53;;;;;;;5.47;2.47;;;;;;;;;;5015967;28;20483;-42
2021/05/23 06:58:19;;;;;;;2.85;1.35;;;;;;;;;;5018321;28;20105;-47
2021/05/23 07:00:44;;;;;;;6.65;2.22;;;;;;;;;;5014898;28;20124;-45
2021/05/23 07:03:11;;;;;;;6.05;2.65;;;;;;;;;;5014662;28;20135;-44
2021/05/23 07:05:37;;;;;;;9.93;3.55;;;;;;;;;;5015976;28;20042;-47
2021/05/23 07:08:02;;;;;;;8.35;4.00;;;;;;;;;;5012339;28;20059;-44
2021/05/23 07:10:28;;;;;;;10.07;4.32;;;;;;;;;;5015526;28;20037;-44
2021/05/23 07:12:53;;;;;;;21.42;15.02;;;;;;;;;;5016116;28;20083;-45
2021/05/23 07:15:18;;;;;;;20.98;12.75;;;;;;;;;;5018236;28;20059;-44
2021/05/23 07:17:44;;;;;;;4.57;3.00;;;;;;;;;;5018038;28;20104;-46
2021/05/23 07:20:09;;;;;;;8.15;2.45;;;;;;;;;;5014096;28;20084;-44
2021/05/23 07:22:34;;;;;;;2.80;2.38;;;;;;;;;;5014596;28;20487;-44
2021/05/23 07:25:00;;;;;;;3.35;2.42;;;;;;;;;;5020309;28;20398;-46
2021/05/23 07:27:25;;;;;;;8.00;4.13;;;;;;;;;;5016998;28;20149;-43
2021/05/23 07:29:50;;;;;;;4.60;1.70;;;;;;;;;;5020145;28;20125;-43
2021/05/23 07:32:16;;;;;;;2.58;1.75;;;;;;;;;;5016274;28;20065;-43
2021/05/23 07:34:41;;;;;;;4.03;1.85;;;;;;;;;;5019478;28;20036;-44
2021/05/23 07:37:06;;;;;;;3.28;1.98;;;;;;;;;;5017067;28;20441;-46
2021/05/23 07:39:32;;;;;;;8.38;2.92;;;;;;;;;;5016598;28;20080;-45
2021/05/23 07:41:57;;;;;;;2.58;2.05;;;;;;;;;;5014241;28;20033;-52
2021/05/23 07:44:22;;;;;;;9.32;4.65;;;;;;;;;;5016635;28;20498;-44
2021/05/23 07:46:48;;;;;;;5.82;2.20;;;;;;;;;;5017703;28;20030;-47
2021/05/23 07:49:14;;;;;;;12.02;3.22;;;;;;;;;;5016513;28;20507;-45
2021/05/23 07:51:39;;;;;;;5.43;2.10;;;;;;;;;;5019575;28;20414;-44
2021/05/23 07:54:04;;;;;;;7.45;4.15;;;;;;;;;;5017628;28;20107;-44
2021/05/23 07:56:30;;;;;;;7.00;2.72;;;;;;;;;;5019867;28;20037;-44
2021/05/23 07:58:55;;;;;;;7.45;2.05;;;;;;;;;;5033711;28;20037;-47
2021/05/23 08:01:20;;;;;;;5.90;2.35;;;;;;;;;;5017834;28;20084;-46
2021/05/23 08:03:46;;;;;;;5.57;1.17;;;;;;;;;;5018801;28;20057;-44
2021/05/23 08:06:13;;;;;;;4.90;1.90;;;;;;;;;;5018428;28;20504;-47
2021/05/23 08:08:38;;;;;;;7.43;3.35;;;;;;;;;;5019458;28;20111;-46
2021/05/23 08:11:03;;;;;;;4.47;1.58;;;;;;;;;;5000370;28;20471;-48
2021/05/23 08:13:29;;;;;;;3.70;1.90;;;;;;;;;;5019419;28;20242;-48
2021/05/23 08:15:56;;;;;;;12.65;2.38;;;;;;;;;;5014945;28;20029;-48
2021/05/23 08:18:28;;;;;;;6.57;3.30;;;;;;;;;;5015552;28;20057;-49
2021/05/23 08:20:55;;;;;;;0.88;0.68;;;;;;;;;;5016909;28;20041;-45
2021/05/23 08:23:21;;;;;;;3.63;1.83;;;;;;;;;;4996143;28;20044;-45
2021/05/23 08:25:46;;;;;;;5.05;1.85;;;;;;;;;;5012687;28;20049;-47
2021/05/23 08:28:12;;;;;;;4.55;1.95;;;;;;;;;;5015249;28;20129;-47
2021/05/23 08:30:38;;;;;;;3.05;1.25;;;;;;;;;;5013250;28;20510;-46
2021/05/23 08:33:03;;;;;;;6.13;1.45;;;;;;;;;;5016895;28;20041;-46
2021/05/23 08:35:29;;;;;;;6.28;2.88;;;;;;;;;;5018278;28;20034;-45
2021/05/23 08:37:54;;;;;;;7.65;2.17;;;;;;;;;;5019072;28;20698;-45
2021/05/23 08:40:19;;;;;;;3.15;1.23;;;;;;;;;;5014656;28;20577;-46
2021/05/23 08:42:45;;;;;;;9.07;2.35;;;;;;;;;;5014660;28;20132;-48
2021/05/23 08:45:12;;;;;;;11.82;7.93;;;;;;;;;;5016005;28;20037;-49
2021/05/23 08:47:44;;;;;;;8.35;1.38;;;;;;;;;;5019933;28;20033;-48
2021/05/23 08:50:10;;;;;;;8.80;1.77;;;;;;;;;;5015134;28;20033;-46
2021/05/23 08:52:35;;;;;;;11.30;2.10;;;;;;;;;;5014068;28;20373;-46
2021/05/23 08:55:00;;;;;;;1.70;1.02;;;;;;;;;;5016519;28;20034;-50
2021/05/23 08:57:26;;;;;;;6.13;1.85;;;;;;;;;;5016776;28;20423;-46
2021/05/23 08:59:51;;;;;;;12.73;4.57;;;;;;;;;;5014495;28;20064;-48
2021/05/23 09:02:17;;;;;;;19.17;6.13;;;;;;;;;;5016126;28;20489;-48
2021/05/23 09:04:49;;;;;;;3.45;1.83;;;;;;;;;;5016821;28;20570;-48
2021/05/23 09:07:15;;;;;;;5.75;2.55;;;;;;;;;;5018883;28;20124;-47
2021/05/23 09:09:41;;;;;;;6.20;1.73;;;;;;;;;;5018935;28;20388;-44
2021/05/23 09:12:08;;;;;;;2.15;1.42;;;;;;;;;;5015586;28;20060;-47
2021/05/23 09:14:37;;;;;;;0.85;0.52;;;;;;;;;;5013237;28;20038;-46
2021/05/23 09:17:05;;;;;;;22.23;2.10;;;;;;;;;;5016880;28;20021;-45
2021/05/23 09:19:42;;;;;;;8.45;2.95;;;;;;;;;;5019737;28;20041;-46
2021/05/23 09:22:08;;;;;;;7.25;3.92;;;;;;;;;;5016836;28;20029;-47
2021/05/23 09:24:34;;;;;;;8.18;2.35;;;;;;;;;;5010221;28;20041;-46
2021/05/23 09:27:05;;;;;;;12.82;2.30;;;;;;;;;;5013924;28;20514;-44
2021/05/23 09:29:30;;;;;;;;;;;;;;;;;;5016758;28;20036;-48
2021/05/23 09:32:04;;;;;;;7.15;3.08;;;;;;;;;;5016830;28;19929;-45
2021/05/23 09:34:30;;;;;;;15.57;3.28;;;;;;;;;;5015920;28;20029;-47
2021/05/23 09:36:55;;;;;;;4.57;2.03;;;;;;;;;;5015956;28;20033;-46
2021/05/23 09:39:21;;;;;;;9.30;2.53;;;;;;;;;;5016849;28;20060;-46
2021/05/23 09:41:48;;;;;;;7.05;1.55;;;;;;;;;;5018825;28;20038;-52
2021/05/23 09:44:25;;;;;;;5.35;0.77;;;;;;;;;;5018151;28;20040;-48
2021/05/23 09:46:54;;;;;;;1.92;1.23;;;;;;;;;;5015433;28;20208;-45
2021/05/23 09:49:20;;;;;;;6.43;1.70;;;;;;;;;;5015894;28;20121;-45
2021/05/23 09:51:52;;;;;;;6.25;0.68;;;;;;;;;;5017687;28;20091;-45
2021/05/23 09:54:18;;;;;;;1.98;0.93;;;;;;;;;;5015819;28;20025;-46
2021/05/23 09:56:43;;;;;;;5.13;1.20;;;;;;;;;;5017324;28;20410;-44
2021/05/23 09:59:17;;;;;;;4.97;1.65;;;;;;;;;;5017954;28;20064;-47
2021/05/23 10:01:42;;;;;;;22.67;1.45;;;;;;;;;;5019374;28;20490;-46
2021/05/23 10:04:16;;;;;;;2.38;1.20;;;;;;;;;;5017832;28;20044;-45
2021/05/23 10:06:42;;;;;;;6.28;1.60;;;;;;;;;;5015406;28;20037;-45
2021/05/23 10:09:07;;;;;;;3.95;1.30;;;;;;;;;;5013800;28;20107;-45
2021/05/23 10:11:32;;;;;;;10.07;1.80;;;;;;;;;;5015603;28;20515;-50
2021/05/23 10:13:58;;;;;;;5.93;0.90;;;;;;;;;;5010032;28;20033;-48
2021/05/23 10:16:23;;;;;;;4.57;2.15;;;;;;;;;;5010454;28;20034;-46
2021/05/23 10:18:49;;;;;;;3.33;1.23;;;;;;;;;;5016679;28;20096;-48
2021/05/23 10:21:15;;;;;;;1.38;0.52;;;;;;;;;;5014269;28;20445;-45
2021/05/23 10:23:57;;;;;;;1.60;0.35;;;;;;;;;;5015921;28;20049;-48
2021/05/23 10:26:25;;;;;;;3.30;1.52;;;;;;;;;;5012974;28;20176;-46
2021/05/23 10:28:51;;;;;;;15.48;2.78;;;;;;;;;;5013939;28;20063;-47
2021/05/23 10:31:26;;;;;;;5.78;1.90;;;;;;;;;;5011676;28;20481;-45
2021/05/23 10:33:52;;;;;;;3.45;1.08;;;;;;;;;;5010481;28;20037;-51
2021/05/23 10:36:34;;;;;;;4.00;1.35;;;;;;;;;;5011421;28;20025;-48
2021/05/23 10:39:00;;;;;;;2.30;0.95;;;;;;;;;;5012934;28;20064;-50
2021/05/23 10:41:26;;;;;;;2.97;1.48;;;;;;;;;;5010883;28;20042;-47
2021/05/23 10:43:59;;;;;;;2.42;1.05;;;;;;;;;;5018460;28;20407;-45
2021/05/23 10:46:24;;;;;;;2.85;1.08;;;;;;;;;;5015787;28;20049;-49
2021/05/23 10:48:54;;;;;;;2.80;1.52;;;;;;;;;;5014679;28;20041;-47
2021/05/23 10:51:19;;;;;;;1.65;1.25;;;;;;;;;;5016245;28;20068;-48
2021/05/23 10:53:45;;;;;;;4.15;1.35;;;;;;;;;;5018725;28;20483;-46
2021/05/23 10:56:23;;;;;;;2.92;0.93;;;;;;;;;;5014807;28;20628;-47
2021/05/23 10:59:06;;;;;;;20.58;1.60;;;;;;;;;;5019987;28;20080;-49
2021/05/23 11:01:39;;;;;;;1.83;0.65;;;;;;;;;;5005622;28;20414;-46
2021/05/23 11:04:08;;;;;;;4.22;1.00;;;;;;;;;;5020288;28;20033;-48
2021/05/23 11:06:33;;;;;;;3.60;1.42;;;;;;;;;;5017275;28;20034;-48
2021/05/23 11:09:05;;;;;;;4.32;1.38;;;;;;;;;;5015425;28;20054;-47
2021/05/23 11:11:30;;;;;;;4.20;1.50;;;;;;;;;;5016903;28;20106;-48
2021/05/23 11:13:55;;;;;;;3.03;0.93;;;;;;;;;;5020168;28;20596;-44
2021/05/23 11:16:21;;;;;;;3.17;1.20;;;;;;;;;;5017908;28;20029;-50
2021/05/23 11:18:46;;;;;;;1.83;0.70;;;;;;;;;;5015850;28;20523;-47
2021/05/23 11:21:13;;;;;;;1.48;0.50;;;;;;;;;;5013493;28;20045;-48
2021/05/23 11:23:45;;;;;;;7.35;1.38;;;;;;;;;;5017119;28;20776;-48
2021/05/23 11:26:12;;;;;;;6.60;0.77;;;;;;;;;;5020430;28;20056;-45
2021/05/23 11:28:38;;;;;;;2.15;1.13;;;;;;;;;;5014743;28;20045;-45
2021/05/23 11:31:05;;;;;;;2.40;1.10;;;;;;;;;;5019252;28;20030;-48
2021/05/23 11:33:31;;;;;;;0.63;0.32;;;;;;;;;;5018776;28;20073;-45
2021/05/23 11:35:56;;;;;;;1.75;0.63;;;;;;;;;;5012583;28;20407;-50
2021/05/23 11:38:32;;;;;;;5.35;1.45;;;;;;;;;;5013510;28;20128;-48
2021/05/23 11:40:57;;;;;;;12.23;2.33;;;;;;;;;;5012748;28;20041;-48
2021/05/23 11:43:24;;;;;;;11.45;4.47;;;;;;;;;;5013493;28;20045;-47
2021/05/23 11:45:52;;;;;;;15.90;6.22;;;;;;;;;;5019338;28;20045;-51
2021/05/23 11:48:17;;;;;;;9.20;4.53;;;;;;;;;;5014167;28;20072;-45
2021/05/23 11:50:43;;;;;;;15.60;10.93;;;;;;;;;;5014183;28;20121;-51
2021/05/23 11:53:08;;;;;;;34.45;13.52;;;;;;;;;;5013794;28;20041;-48
2021/05/23 11:55:33;;;;;;;22.13;14.52;;;;;;;;;;5013979;28;20026;-49
2021/05/23 11:58:09;;;;;;;20.92;10.10;;;;;;;;;;5013457;28;20052;-46
2021/05/23 12:00:35;;;;;;;27.75;9.52;;;;;;;;;;5017956;28;20071;-47
2021/05/23 12:03:00;;;;;;;15.27;8.13;;;;;;;;;;5018891;28;20104;-47
2021/05/23 12:05:36;;;;;;;15.43;8.23;;;;;;;;;;5018046;28;20426;-46
2021/05/23 12:08:01;;;;;;;18.95;11.85;;;;;;;;;;5018378;28;20102;-48
2021/05/23 12:10:27;;;;;;;38.67;15.38;;;;;;;;;;5016986;28;20038;-46
2021/05/23 12:12:52;;;;;;;16.67;10.27;;;;;;;;;;5016510;28;20088;-45
2021/05/23 12:15:18;;;;;;;18.33;6.35;;;;;;;;;;5017091;28;20030;-48
2021/05/23 12:17:50;;;;;;;14.35;4.65;;;;;;;;;;5018109;28;20175;-45
2021/05/23 12:20:16;;;;;;;8.07;4.22;;;;;;;;;;5019837;28;20041;-50
2021/05/23 12:22:42;;;;;;;12.35;2.90;;;;;;;;;;5015243;28;20092;-45
2021/05/23 12:25:11;;;;;;;7.15;3.40;;;;;;;;;;5017027;28;20061;-49
2021/05/23 12:27:46;;;;;;;5.03;3.28;;;;;;;;;;5015426;28;20097;-47
2021/05/23 12:30:14;;;;;;;15.57;4.53;;;;;;;;;;5017888;28;20778;-47
2021/05/23 12:32:49;;;;;;;19.23;5.05;;;;;;;;;;5015964;28;20036;-49
2021/05/23 12:35:16;;;;;;;5.75;3.20;;;;;;;;;;5017966;28;20031;-49
2021/05/23 12:37:46;;;;;;;12.90;4.47;;;;;;;;;;5018871;28;20041;-45
2021/05/23 12:40:15;;;;;;;9.82;4.50;;;;;;;;;;5017983;28;20044;-48
2021/05/23 12:42:41;;;;;;;19.73;4.85;;;;;;;;;;5016878;28;20037;-45
2021/05/23 12:45:06;;;;;;;7.15;5.15;;;;;;;;;;5011838;28;20495;-46
2021/05/23 12:47:32;;;;;;;12.15;6.88;;;;;;;;;;5015672;28;20037;-48
2021/05/23 12:49:58;;;;;;;6.45;2.40;;;;;;;;;;5016571;28;20037;-45
2021/05/23 12:52:23;;;;;;;15.35;4.38;;;;;;;;;;5014833;28;20022;-46
2021/05/23 12:54:48;;;;;;;4.35;2.67;;;;;;;;;;5013295;28;20029;-50
2021/05/23 12:57:15;;;;;;;11.85;3.72;;;;;;;;;;5012546;28;20373;-48
2021/05/23 12:59:42;;;;;;;13.90;3.22;;;;;;;;;;5017399;28;20124;-47
2021/05/23 13:02:08;;;;;;;5.30;2.70;;;;;;;;;;5014507;28;20116;-47
2021/05/23 13:04:34;;;;;;;6.82;1.63;;;;;;;;;;5012703;28;20527;-48
2021/05/23 13:07:01;;;;;;;6.40;1.70;;;;;;;;;;5014742;28;20462;-47
2021/05/23 13:09:44;;;;;;;8.82;3.00;;;;;;;;;;5017962;28;20069;-46
2021/05/23 13:12:18;;;;;;;8.68;4.07;;;;;;;;;;5015127;28;20057;-51
2021/05/23 13:14:59;;;;;;;7.22;2.15;;;;;;;;;;5018050;28;20042;-47
2021/05/23 13:17:25;;;;;;;7.07;1.85;;;;;;;;;;5010977;28;20033;-46
2021/05/23 13:19:51;;;;;;;3.83;2.00;;;;;;;;;;5017554;28;20540;-46
2021/05/23 13:22:16;;;;;;;3.95;1.33;;;;;;;;;;5013899;28;20050;-45
2021/05/23 13:24:44;;;;;;;24.27;13.30;;;;;;;;;;5015909;28;20115;-49
2021/05/23 13:27:09;;;;;;;13.23;6.15;;;;;;;;;;5014976;28;20049;-45
2021/05/23 13:29:35;;;;;;;10.80;3.60;;;;;;;;;;5012948;28;20036;-49
2021/05/23 13:32:00;;;;;;;7.30;1.98;;;;;;;;;;5015033;28;20394;-44
2021/05/23 13:34:26;;;;;;;6.72;3.22;;;;;;;;;;4998585;28;20391;-44
2021/05/23 13:36:51;;;;;;;8.57;3.38;;;;;;;;;;5013365;28;20531;-47
2021/05/23 13:39:17;;;;;;;8.57;2.22;;;;;;;;;;5016359;28;20037;-47
2021/05/23 13:41:42;;;;;;;13.95;2.50;;;;;;;;;;5014115;28;20116;-43
2021/05/23 13:44:09;;;;;;;12.57;2.90;;;;;;;;;;5017415;28;20509;-47
2021/05/23 13:46:34;;;;;;;10.93;2.95;;;;;;;;;;5014400;28;20033;-47
2021/05/23 13:49:00;;;;;;;9.93;2.65;;;;;;;;;;5018144;28;20068;-46
2021/05/23 13:51:25;;;;;;;15.55;3.03;;;;;;;;;;5020297;28;20075;-45
2021/05/23 13:53:51;;;;;;;15.10;3.30;;;;;;;;;;5014468;28;20706;-47
2021/05/23 13:56:16;;;;;;;12.10;2.78;;;;;;;;;;5014167;28;20077;-44
2021/05/23 13:58:41;;;;;;;9.60;2.58;;;;;;;;;;5015488;28;20048;-48
2021/05/23 14:01:07;;;;;;;10.15;3.05;;;;;;;;;;5016594;28;20613;-45
2021/05/23 14:03:32;;;;;;;10.20;2.65;;;;;;;;;;5013144;28;20069;-47
2021/05/23 14:06:05;;;;;;;5.60;1.35;;;;;;;;;;5018177;28;20071;-49
2021/05/23 14:08:32;;;;;;;19.27;3.38;;;;;;;;;;5014931;28;20042;-46
2021/05/23 14:10:59;;;;;;;4.38;1.75;;;;;;;;;;5016490;28;20156;-47
2021/05/23 14:13:25;;;;;;;5.32;1.55;;;;;;;;;;5013069;28;20037;-45
2021/05/23 14:15:50;;;;;;;9.00;3.13;;;;;;;;;;5015039;28;20022;-44
2021/05/23 14:18:16;;;;;;;6.03;2.33;;;;;;;;;;5020324;28;20418;-48
2021/05/23 14:20:41;;;;;;;6.00;1.88;;;;;;;;;;5020488;28;20065;-48
2021/05/23 14:23:07;;;;;;;4.63;2.70;;;;;;;;;;5017299;28;20033;-45
2021/05/23 14:25:32;;;;;;;4.35;1.75;;;;;;;;;;5019437;28;20132;-47
2021/05/23 14:27:58;;;;;;;4.03;0.90;;;;;;;;;;5018465;28;20033;-46
2021/05/23 14:30:24;;;;;;;4.45;2.75;;;;;;;;;;5020191;28;20040;-50
2021/05/23 14:32:50;;;;;;;4.18;2.03;;;;;;;;;;5014092;28;20487;-46
2021/05/23 14:35:16;;;;;;;4.50;2.70;;;;;;;;;;5019211;28;20041;-47
2021/05/23 14:37:41;;;;;;;11.30;3.05;;;;;;;;;;5016561;28;20114;-47